sensor_id;sensor_type;location;lat;lon;timestamp;temperature;humidity
49901;DHT22;35789;48.414;12.768;2023-06-26T00:00:00;15.4;99.9
49901;DHT22;35789;48.414;12.768;2023-06-26T00:05:00;15.4;99.9
49901;DHT22;35789;48.414;12.768;2023-06-26T00:10:00;15.4;99.9
49901;DHT22;35789;48.414;12.768;2023-06-26T00:15:00;15.3;99.9
49901;DHT22;35789;48.414;12.768;2023-06-26T00:20:00;15.2;99.9
49901;DHT22;35789;48.414;12.768;2023-06-26T00:25:00;15.3;99.9
49901;DHT22;35789;48.414;12.768;2023-06-26T00:30:00;15.2;99.9
49901;DHT22;35789;48.414;12.768;2023-06-26T00:35:00;15.1;99.9
49901;DHT22;35789;48.414;12.768;2023-06-26T00:40:00;15.0;99.9
49901;DHT22;35789;48.414;12.768;2023-06-26T00:45:00;15.0;99.9
49901;DHT22;35789;48.414;12.768;2023-06-26T00:50:00;15.0;99.9
49901;DHT22;35789;48.414;12.768;2023-06-26T00:55:00;14.9;99.9
49901;DHT22;35789;48.414;12.768;2023-06-26T01:00:00;14.7;99.9
49901;DHT22;35789;48.414;12.768;2023-06-26T01:05:00;14.8;99.9
49901;DHT22;35789;48.414;12.768;2023-06-26T01:10:00;14.8;99.9
49901;DHT22;35789;48.414;12.768;2023-06-26T01:15:00;14.7;99.9
49901;DHT22;35789;48.414;12.768;2023-06-26T01:20:00;14.7;99.9
49901;DHT22;35789;48.414;12.768;2023-06-26T01:25:03;14.6;99.9
49901;DHT22;35789;48.414;12.768;2023-06-26T01:30:01;14.4;99.9
49901;DHT22;35789;48.414;12.768;2023-06-26T01:35:00;14.5;99.9
49901;DHT22;35789;48.414;12.768;2023-06-26T01:40:00;14.5;99.9
49901;DHT22;35789;48.414;12.768;2023-06-26T01:45:01;14.5;99.9
49901;DHT22;35789;48.414;12.768;2023-06-26T01:50:02;14.4;99.9
49901;DHT22;35789;48.414;12.768;2023-06-26T01:55:02;14.4;99.9
49901;DHT22;35789;48.414;12.768;2023-06-26T02:00:00;14.4;99.9
49901;DHT22;35789;48.414;12.768;2023-06-26T02:05:00;14.3;99.9
49901;DHT22;35789;48.414;12.768;2023-06-26T02:10:00;14.2;99.9
49901;DHT22;35789;48.414;12.768;2023-06-26T02:15:00;14.2;99.9
49901;DHT22;35789;48.414;12.768;2023-06-26T02:20:00;14.3;99.9
49901;DHT22;35789;48.414;12.768;2023-06-26T02:25:00;14.2;99.9
49901;DHT22;35789;48.414;12.768;2023-06-26T02:30:00;14.2;99.9
49901;DHT22;35789;48.414;12.768;2023-06-26T02:35:00;14.1;99.9
49901;DHT22;35789;48.414;12.768;2023-06-26T02:40:00;13.8;99.9
49901;DHT22;35789;48.414;12.768;2023-06-26T02:45:00;13.9;99.9
49901;DHT22;35789;48.414;12.768;2023-06-26T02:50:00;14.0;99.9
49901;DHT22;35789;48.414;12.768;2023-06-26T02:55:00;14.0;99.9
49901;DHT22;35789;48.414;12.768;2023-06-26T03:00:00;13.9;99.9
49901;DHT22;35789;48.414;12.768;2023-06-26T03:05:00;13.9;99.9
49901;DHT22;35789;48.414;12.768;2023-06-26T03:10:00;13.9;99.9
49901;DHT22;35789;48.414;12.768;2023-06-26T03:15:00;13.8;99.9
49901;DHT22;35789;48.414;12.768;2023-06-26T03:20:00;13.8;99.9
49901;DHT22;35789;48.414;12.768;2023-06-26T03:25:01;13.9;99.9
49901;DHT22;35789;48.414;12.768;2023-06-26T03:30:00;13.8;99.9
49901;DHT22;35789;48.414;12.768;2023-06-26T03:35:00;13.8;99.9
49901;DHT22;35789;48.414;12.768;2023-06-26T03:40:00;13.9;99.9
49901;DHT22;35789;48.414;12.768;2023-06-26T03:45:00;13.9;99.9
49901;DHT22;35789;48.414;12.768;2023-06-26T03:50:00;13.9;99.9
49901;DHT22;35789;48.414;12.768;2023-06-26T03:55:00;13.9;99.9
49901;DHT22;35789;48.414;12.768;2023-06-26T04:00:00;13.8;99.9
49901;DHT22;35789;48.414;12.768;2023-06-26T04:05:00;13.9;99.9
49901;DHT22;35789;48.414;12.768;2023-06-26T04:10:00;13.9;99.9
49901;DHT22;35789;48.414;12.768;2023-06-26T04:15:00;13.9;99.9
49901;DHT22;35789;48.414;12.768;2023-06-26T04:20:00;13.9;99.9
49901;DHT22;35789;48.414;12.768;2023-06-26T04:25:02;14.1;99.9
49901;DHT22;35789;48.414;12.768;2023-06-26T04:30:00;14.1;99.9
49901;DHT22;35789;48.414;12.768;2023-06-26T04:35:00;14.2;99.9
49901;DHT22;35789;48.414;12.768;2023-06-26T04:40:00;14.2;99.9
49901;DHT22;35789;48.414;12.768;2023-06-26T04:45:00;14.2;99.9
49901;DHT22;35789;48.414;12.768;2023-06-26T04:50:00;14.3;99.9
49901;DHT22;35789;48.414;12.768;2023-06-26T04:55:00;14.3;99.9
49901;DHT22;35789;48.414;12.768;2023-06-26T05:00:00;14.4;99.9
49901;DHT22;35789;48.414;12.768;2023-06-26T05:05:00;14.5;99.9
49901;DHT22;35789;48.414;12.768;2023-06-26T05:10:00;14.6;99.9
49901;DHT22;35789;48.414;12.768;2023-06-26T05:15:00;14.7;99.9
49901;DHT22;35789;48.414;12.768;2023-06-26T05:20:00;14.8;99.9
49901;DHT22;35789;48.414;12.768;2023-06-26T05:25:00;14.9;99.9
49901;DHT22;35789;48.414;12.768;2023-06-26T05:30:00;15.0;99.9
49901;DHT22;35789;48.414;12.768;2023-06-26T05:35:00;15.1;99.9
49901;DHT22;35789;48.414;12.768;2023-06-26T05:40:00;15.3;99.9
49901;DHT22;35789;48.414;12.768;2023-06-26T05:45:00;15.3;99.9
49901;DHT22;35789;48.414;12.768;2023-06-26T05:50:00;15.4;99.9
49901;DHT22;35789;48.414;12.768;2023-06-26T05:55:00;15.5;99.9
49901;DHT22;35789;48.414;12.768;2023-06-26T06:00:00;15.6;99.9
49901;DHT22;35789;48.414;12.768;2023-06-26T06:05:00;15.8;99.9
49901;DHT22;35789;48.414;12.768;2023-06-26T06:10:00;16.0;99.9
49901;DHT22;35789;48.414;12.768;2023-06-26T06:15:00;16.0;99.9
49901;DHT22;35789;48.414;12.768;2023-06-26T06:20:00;16.2;99.9
49901;DHT22;35789;48.414;12.768;2023-06-26T06:25:00;16.2;99.9
49901;DHT22;35789;48.414;12.768;2023-06-26T06:30:00;16.3;99.9
49901;DHT22;35789;48.414;12.768;2023-06-26T06:35:00;16.4;99.9
49901;DHT22;35789;48.414;12.768;2023-06-26T06:40:00;16.5;99.9
49901;DHT22;35789;48.414;12.768;2023-06-26T06:45:01;16.8;99.9
49901;DHT22;35789;48.414;12.768;2023-06-26T06:50:00;16.9;99.9
49901;DHT22;35789;48.414;12.768;2023-06-26T06:55:00;17.2;99.9
49901;DHT22;35789;48.414;12.768;2023-06-26T07:00:00;17.5;98.9
49901;DHT22;35789;48.414;12.768;2023-06-26T07:05:00;17.7;99.3
49901;DHT22;35789;48.414;12.768;2023-06-26T07:10:01;17.7;99.9
49901;DHT22;35789;48.414;12.768;2023-06-26T07:15:00;17.9;99.9
49901;DHT22;35789;48.414;12.768;2023-06-26T07:20:00;17.9;99.5
49901;DHT22;35789;48.414;12.768;2023-06-26T07:25:00;17.9;99.9
49901;DHT22;35789;48.414;12.768;2023-06-26T07:30:00;18.2;98.8
49901;DHT22;35789;48.414;12.768;2023-06-26T07:35:00;18.4;99.3
49901;DHT22;35789;48.414;12.768;2023-06-26T07:40:00;18.5;97.4
49901;DHT22;35789;48.414;12.768;2023-06-26T07:45:00;18.5;97.1
49901;DHT22;35789;48.414;12.768;2023-06-26T07:50:00;18.7;97.5
49901;DHT22;35789;48.414;12.768;2023-06-26T07:55:00;18.9;97.0
49901;DHT22;35789;48.414;12.768;2023-06-26T08:00:00;19.0;96.9
49901;DHT22;35789;48.414;12.768;2023-06-26T08:05:00;19.1;96.4
49901;DHT22;35789;48.414;12.768;2023-06-26T08:10:00;19.3;96.2
49901;DHT22;35789;48.414;12.768;2023-06-26T08:15:00;19.3;96.1
49901;DHT22;35789;48.414;12.768;2023-06-26T08:20:00;19.7;96.0
49901;DHT22;35789;48.414;12.768;2023-06-26T08:25:01;19.9;95.5
49901;DHT22;35789;48.414;12.768;2023-06-26T08:30:00;20.3;94.9
49901;DHT22;35789;48.414;12.768;2023-06-26T08:35:00;20.8;94.0
49901;DHT22;35789;48.414;12.768;2023-06-26T08:40:00;20.7;94.0
49901;DHT22;35789;48.414;12.768;2023-06-26T08:45:00;21.3;93.1
49901;DHT22;35789;48.414;12.768;2023-06-26T08:50:01;21.1;92.1
49901;DHT22;35789;48.414;12.768;2023-06-26T08:55:01;21.0;93.0
49901;DHT22;35789;48.414;12.768;2023-06-26T09:00:00;20.9;91.8
49901;DHT22;35789;48.414;12.768;2023-06-26T09:05:00;21.2;92.1
49901;DHT22;35789;48.414;12.768;2023-06-26T09:10:00;21.3;91.4
49901;DHT22;35789;48.414;12.768;2023-06-26T09:15:00;21.6;91.3
49901;DHT22;35789;48.414;12.768;2023-06-26T09:20:00;22.2;90.8
49901;DHT22;35789;48.414;12.768;2023-06-26T09:25:00;22.3;91.1
49901;DHT22;35789;48.414;12.768;2023-06-26T09:30:01;22.6;90.7
49901;DHT22;35789;48.414;12.768;2023-06-26T09:35:01;23.2;86.1
49901;DHT22;35789;48.414;12.768;2023-06-26T09:40:00;23.4;86.2
49901;DHT22;35789;48.414;12.768;2023-06-26T09:45:01;23.4;88.0
49901;DHT22;35789;48.414;12.768;2023-06-26T09:50:02;23.8;86.5
49901;DHT22;35789;48.414;12.768;2023-06-26T09:55:07;23.4;86.9
49901;DHT22;35789;48.414;12.768;2023-06-26T10:00:00;23.5;85.4
49901;DHT22;35789;48.414;12.768;2023-06-26T10:05:00;23.9;84.3
49901;DHT22;35789;48.414;12.768;2023-06-26T10:10:00;23.7;85.8
49901;DHT22;35789;48.414;12.768;2023-06-26T10:15:00;23.7;83.0
49901;DHT22;35789;48.414;12.768;2023-06-26T10:20:01;24.1;85.0
49901;DHT22;35789;48.414;12.768;2023-06-26T10:25:00;24.0;83.3
49901;DHT22;35789;48.414;12.768;2023-06-26T10:30:02;24.2;82.2
49901;DHT22;35789;48.414;12.768;2023-06-26T10:35:00;24.3;83.9
49901;DHT22;35789;48.414;12.768;2023-06-26T10:40:00;24.7;79.4
49901;DHT22;35789;48.414;12.768;2023-06-26T10:45:08;25.0;78.5
49901;DHT22;35789;48.414;12.768;2023-06-26T10:55:00;26.1;75.7
49901;DHT22;35789;48.414;12.768;2023-06-26T11:00:08;26.6;74.3
49901;DHT22;35789;48.414;12.768;2023-06-26T11:05:00;26.9;71.9
49901;DHT22;35789;48.414;12.768;2023-06-26T11:10:00;27.4;76.7
49901;DHT22;35789;48.414;12.768;2023-06-26T11:15:00;27.7;77.5
49901;DHT22;35789;48.414;12.768;2023-06-26T11:20:00;28.3;73.8
49901;DHT22;35789;48.414;12.768;2023-06-26T11:25:00;28.9;74.2
49901;DHT22;35789;48.414;12.768;2023-06-26T11:30:00;29.1;73.4
49901;DHT22;35789;48.414;12.768;2023-06-26T11:35:00;29.7;70.2
49901;DHT22;35789;48.414;12.768;2023-06-26T11:45:00;31.3;66.0
49901;DHT22;35789;48.414;12.768;2023-06-26T11:50:01;31.5;64.7
49901;DHT22;35789;48.414;12.768;2023-06-26T11:55:00;31.7;66.3
49901;DHT22;35789;48.414;12.768;2023-06-26T12:00:10;31.9;69.0
49901;DHT22;35789;48.414;12.768;2023-06-26T12:05:00;32.2;66.3
49901;DHT22;35789;48.414;12.768;2023-06-26T12:10:00;32.7;64.3
49901;DHT22;35789;48.414;12.768;2023-06-26T12:15:00;31.8;66.0
49901;DHT22;35789;48.414;12.768;2023-06-26T12:20:00;30.5;63.9
49901;DHT22;35789;48.414;12.768;2023-06-26T12:25:00;30.5;66.8
49901;DHT22;35789;48.414;12.768;2023-06-26T12:30:02;31.6;66.0
49901;DHT22;35789;48.414;12.768;2023-06-26T12:35:00;32.1;63.6
49901;DHT22;35789;48.414;12.768;2023-06-26T12:40:00;31.4;63.5
49901;DHT22;35789;48.414;12.768;2023-06-26T12:45:09;31.8;67.2
49901;DHT22;35789;48.414;12.768;2023-06-26T12:50:04;31.9;68.4
49901;DHT22;35789;48.414;12.768;2023-06-26T12:55:00;32.1;61.2
49901;DHT22;35789;48.414;12.768;2023-06-26T13:00:00;31.4;64.5
49901;DHT22;35789;48.414;12.768;2023-06-26T13:05:00;31.0;63.4
49901;DHT22;35789;48.414;12.768;2023-06-26T13:10:00;30.7;64.8
49901;DHT22;35789;48.414;12.768;2023-06-26T13:15:00;30.1;64.4
49901;DHT22;35789;48.414;12.768;2023-06-26T13:20:00;29.4;68.5
49901;DHT22;35789;48.414;12.768;2023-06-26T13:25:00;29.4;70.5
49901;DHT22;35789;48.414;12.768;2023-06-26T13:30:00;28.8;72.4
49901;DHT22;35789;48.414;12.768;2023-06-26T13:35:00;28.1;69.9
49901;DHT22;35789;48.414;12.768;2023-06-26T13:40:00;28.3;75.2
49901;DHT22;35789;48.414;12.768;2023-06-26T13:45:00;28.4;71.6
49901;DHT22;35789;48.414;12.768;2023-06-26T13:50:00;28.1;67.6
49901;DHT22;35789;48.414;12.768;2023-06-26T13:55:00;28.3;67.9
49901;DHT22;35789;48.414;12.768;2023-06-26T14:00:00;28.3;68.4
49901;DHT22;35789;48.414;12.768;2023-06-26T14:05:00;28.3;68.8
49901;DHT22;35789;48.414;12.768;2023-06-26T14:10:00;28.3;68.8
49901;DHT22;35789;48.414;12.768;2023-06-26T14:15:00;28.3;67.4
49901;DHT22;35789;48.414;12.768;2023-06-26T14:20:00;28.3;68.9
49901;DHT22;35789;48.414;12.768;2023-06-26T14:25:00;27.9;69.1
49901;DHT22;35789;48.414;12.768;2023-06-26T14:30:00;28.0;73.2
49901;DHT22;35789;48.414;12.768;2023-06-26T14:35:00;28.2;68.7
49901;DHT22;35789;48.414;12.768;2023-06-26T14:40:00;28.2;69.5
49901;DHT22;35789;48.414;12.768;2023-06-26T14:45:00;28.4;67.9
49901;DHT22;35789;48.414;12.768;2023-06-26T14:50:00;28.1;69.5
49901;DHT22;35789;48.414;12.768;2023-06-26T14:55:00;28.1;74.2
49901;DHT22;35789;48.414;12.768;2023-06-26T15:00:00;28.1;72.3
49901;DHT22;35789;48.414;12.768;2023-06-26T15:05:00;27.7;70.7
49901;DHT22;35789;48.414;12.768;2023-06-26T15:10:00;27.6;69.2
49901;DHT22;35789;48.414;12.768;2023-06-26T15:15:00;27.5;72.3
49901;DHT22;35789;48.414;12.768;2023-06-26T15:20:00;27.7;68.9
49901;DHT22;35789;48.414;12.768;2023-06-26T15:25:00;28.1;71.4
49901;DHT22;35789;48.414;12.768;2023-06-26T15:30:00;28.0;69.7
49901;DHT22;35789;48.414;12.768;2023-06-26T15:35:00;28.0;69.4
49901;DHT22;35789;48.414;12.768;2023-06-26T15:40:00;27.9;71.4
49901;DHT22;35789;48.414;12.768;2023-06-26T15:45:00;27.8;70.4
49901;DHT22;35789;48.414;12.768;2023-06-26T15:50:00;27.8;73.4
49901;DHT22;35789;48.414;12.768;2023-06-26T15:55:00;27.7;70.0
49901;DHT22;35789;48.414;12.768;2023-06-26T16:00:00;27.7;69.0
49901;DHT22;35789;48.414;12.768;2023-06-26T16:05:00;27.5;72.6
49901;DHT22;35789;48.414;12.768;2023-06-26T16:10:00;27.3;72.6
49901;DHT22;35789;48.414;12.768;2023-06-26T16:15:00;27.2;74.4
49901;DHT22;35789;48.414;12.768;2023-06-26T16:20:00;27.2;71.3
49901;DHT22;35789;48.414;12.768;2023-06-26T16:25:00;27.4;67.3
49901;DHT22;35789;48.414;12.768;2023-06-26T16:30:00;27.3;71.6
49901;DHT22;35789;48.414;12.768;2023-06-26T16:35:00;27.5;68.7
49901;DHT22;35789;48.414;12.768;2023-06-26T16:40:00;27.3;69.9
49901;DHT22;35789;48.414;12.768;2023-06-26T16:45:00;27.3;72.1
49901;DHT22;35789;48.414;12.768;2023-06-26T16:50:00;27.0;69.1
49901;DHT22;35789;48.414;12.768;2023-06-26T16:55:00;26.9;72.1
49901;DHT22;35789;48.414;12.768;2023-06-26T17:00:00;26.8;69.9
49901;DHT22;35789;48.414;12.768;2023-06-26T17:05:00;26.8;70.8
49901;DHT22;35789;48.414;12.768;2023-06-26T17:10:00;26.6;69.7
49901;DHT22;35789;48.414;12.768;2023-06-26T17:15:00;26.6;74.9
49901;DHT22;35789;48.414;12.768;2023-06-26T17:20:00;26.5;71.1
49901;DHT22;35789;48.414;12.768;2023-06-26T17:25:00;26.6;72.6
49901;DHT22;35789;48.414;12.768;2023-06-26T17:30:00;26.5;70.1
49901;DHT22;35789;48.414;12.768;2023-06-26T17:35:00;26.4;72.3
49901;DHT22;35789;48.414;12.768;2023-06-26T17:40:00;26.2;72.6
49901;DHT22;35789;48.414;12.768;2023-06-26T17:45:00;26.1;71.6
49901;DHT22;35789;48.414;12.768;2023-06-26T17:50:00;25.9;73.3
49901;DHT22;35789;48.414;12.768;2023-06-26T17:55:00;25.8;76.3
49901;DHT22;35789;48.414;12.768;2023-06-26T18:00:00;25.7;73.3
49901;DHT22;35789;48.414;12.768;2023-06-26T18:05:00;25.6;74.2
49901;DHT22;35789;48.414;12.768;2023-06-26T18:10:00;25.4;74.7
49901;DHT22;35789;48.414;12.768;2023-06-26T18:15:00;25.4;76.4
49901;DHT22;35789;48.414;12.768;2023-06-26T18:20:00;25.3;76.6
49901;DHT22;35789;48.414;12.768;2023-06-26T18:25:00;25.2;78.9
49901;DHT22;35789;48.414;12.768;2023-06-26T18:30:00;25.0;77.7
49901;DHT22;35789;48.414;12.768;2023-06-26T18:35:00;24.8;79.8
49901;DHT22;35789;48.414;12.768;2023-06-26T18:40:00;24.7;79.1
49901;DHT22;35789;48.414;12.768;2023-06-26T18:45:00;24.5;81.1
49901;DHT22;35789;48.414;12.768;2023-06-26T18:50:00;24.3;83.6
49901;DHT22;35789;48.414;12.768;2023-06-26T18:55:00;24.2;82.7
49901;DHT22;35789;48.414;12.768;2023-06-26T19:00:00;24.3;79.3
49901;DHT22;35789;48.414;12.768;2023-06-26T19:05:00;24.6;78.7
49901;DHT22;35789;48.414;12.768;2023-06-26T19:10:00;24.6;79.4
49901;DHT22;35789;48.414;12.768;2023-06-26T19:15:00;24.4;82.0
49901;DHT22;35789;48.414;12.768;2023-06-26T19:20:00;24.2;82.5
49901;DHT22;35789;48.414;12.768;2023-06-26T19:25:00;24.1;84.8
49901;DHT22;35789;48.414;12.768;2023-06-26T19:30:00;23.6;91.0
49901;DHT22;35789;48.414;12.768;2023-06-26T19:35:00;22.9;92.5
49901;DHT22;35789;48.414;12.768;2023-06-26T19:40:00;22.4;92.8
49901;DHT22;35789;48.414;12.768;2023-06-26T19:45:00;21.9;93.7
49901;DHT22;35789;48.414;12.768;2023-06-26T19:50:00;21.6;93.5
49901;DHT22;35789;48.414;12.768;2023-06-26T19:55:00;21.4;92.7
49901;DHT22;35789;48.414;12.768;2023-06-26T20:00:00;21.3;93.0
49901;DHT22;35789;48.414;12.768;2023-06-26T20:05:01;21.3;92.6
49901;DHT22;35789;48.414;12.768;2023-06-26T20:10:00;21.4;93.1
49901;DHT22;35789;48.414;12.768;2023-06-26T20:15:00;21.5;93.1
49901;DHT22;35789;48.414;12.768;2023-06-26T20:20:00;21.6;91.5
49901;DHT22;35789;48.414;12.768;2023-06-26T20:25:00;21.6;92.1
49901;DHT22;35789;48.414;12.768;2023-06-26T20:30:00;21.7;91.3
49901;DHT22;35789;48.414;12.768;2023-06-26T20:35:00;21.6;92.0
49901;DHT22;35789;48.414;12.768;2023-06-26T20:40:00;21.6;91.6
49901;DHT22;35789;48.414;12.768;2023-06-26T20:45:00;21.5;91.8
49901;DHT22;35789;48.414;12.768;2023-06-26T20:50:00;21.6;92.2
49901;DHT22;35789;48.414;12.768;2023-06-26T20:55:00;21.7;92.3
49901;DHT22;35789;48.414;12.768;2023-06-26T21:00:00;21.7;92.0
49901;DHT22;35789;48.414;12.768;2023-06-26T21:05:00;21.7;91.8
49901;DHT22;35789;48.414;12.768;2023-06-26T21:10:00;21.6;91.9
49901;DHT22;35789;48.414;12.768;2023-06-26T21:15:00;21.6;91.6
49901;DHT22;35789;48.414;12.768;2023-06-26T21:20:00;21.6;91.9
49901;DHT22;35789;48.414;12.768;2023-06-26T21:25:00;21.6;92.1
49901;DHT22;35789;48.414;12.768;2023-06-26T21:30:00;21.7;91.3
49901;DHT22;35789;48.414;12.768;2023-06-26T21:35:00;21.7;91.7
49901;DHT22;35789;48.414;12.768;2023-06-26T21:40:00;21.6;91.6
49901;DHT22;35789;48.414;12.768;2023-06-26T21:45:00;21.5;91.0
49901;DHT22;35789;48.414;12.768;2023-06-26T21:50:00;21.5;90.9
49901;DHT22;35789;48.414;12.768;2023-06-26T21:55:00;21.4;91.1
49901;DHT22;35789;48.414;12.768;2023-06-26T22:00:00;21.3;91.6
49901;DHT22;35789;48.414;12.768;2023-06-26T22:05:00;21.2;91.9
49901;DHT22;35789;48.414;12.768;2023-06-26T22:10:00;21.1;92.3
49901;DHT22;35789;48.414;12.768;2023-06-26T22:15:00;21.0;92.2
49901;DHT22;35789;48.414;12.768;2023-06-26T22:20:00;20.9;93.2
49901;DHT22;35789;48.414;12.768;2023-06-26T22:25:00;21.0;92.5
49901;DHT22;35789;48.414;12.768;2023-06-26T22:30:00;21.0;92.3
49901;DHT22;35789;48.414;12.768;2023-06-26T22:35:00;21.1;92.3
49901;DHT22;35789;48.414;12.768;2023-06-26T22:40:00;21.1;91.8
49901;DHT22;35789;48.414;12.768;2023-06-26T22:45:01;21.1;91.5
49901;DHT22;35789;48.414;12.768;2023-06-26T22:50:00;21.1;90.5
49901;DHT22;35789;48.414;12.768;2023-06-26T22:55:00;21.1;90.8
49901;DHT22;35789;48.414;12.768;2023-06-26T23:00:00;21.1;91.1
49901;DHT22;35789;48.414;12.768;2023-06-26T23:05:00;21.1;90.0
49901;DHT22;35789;48.414;12.768;2023-06-26T23:10:00;21.1;87.4
49901;DHT22;35789;48.414;12.768;2023-06-26T23:15:00;21.1;87.6
49901;DHT22;35789;48.414;12.768;2023-06-26T23:20:00;21.1;88.8
49901;DHT22;35789;48.414;12.768;2023-06-26T23:25:00;21.0;87.7
49901;DHT22;35789;48.414;12.768;2023-06-26T23:30:00;20.9;88.8
49901;DHT22;35789;48.414;12.768;2023-06-26T23:35:00;20.9;89.8
49901;DHT22;35789;48.414;12.768;2023-06-26T23:40:00;20.7;88.8
49901;DHT22;35789;48.414;12.768;2023-06-26T23:45:00;20.7;90.6
49901;DHT22;35789;48.414;12.768;2023-06-26T23:50:00;20.6;88.7
49901;DHT22;35789;48.414;12.768;2023-06-26T23:55:00;20.5;88.7
